METAR Data
IDs: Format: Raw Decoded Include TAF

Data at: 0738 UTC 01 Aug 2021

KIAH 010653Z 23004KT 10SM FEW250 28/24 A2999 RMK AO2 SLP155 T02830239

KIAH 010520Z 0106/0212 VRB03KT P6SM FEW025 SCT060
  FM011900 21006KT P6SM VCTS SCT045CB SCT250
  FM020000 18006KT P6SM SCT060
  FM020300 19004KT P6SM FEW015 SCT100 BKN250
  FM020600 VRB04KT P6SM SCT015 SCT070